This demonstration page uses our WeatherBlox Daily Observations layout. Learn more.

41.55636, -103.73856

Hourly Observations for January 3, 2019

Temp ( °F °C ) Dew Point ( °F °C ) Humidity (%) Winds ( mph kmh ) Pressure ( in mb ) Visibility ( mi km ) Precip ( " mm )
12:58 am 00:58 Clear 21 -6.3 7 -13.7 56 56 W 15 24 30.22 1023 10 16.0934 N/A
1:58 am 01:58 Clear 22 -5.4 8 -13.5 53 53 W 15 24 30.23 1024 10 16.0934 N/A
2:58 am 02:58 Clear 18 -7.7 7 -13.9 61 61 W 14 22 30.23 1024 10 16.0934 N/A
3:58 am 03:58 Clear 19 -7 6 -14.4 56 56 WNW 14 22 30.21 1023 10 16.0934 N/A
4:58 am 04:58 Clear 21 -6.3 6 -14.3 53 53 WNW 17 28 30.15 1021 10 16.0934 N/A
5:58 am 05:58 Clear 22 -5.4 6 -14.2 50 50 WNW 16 26 30.14 1021 10 16.0934 N/A
6:58 am 06:58 Clear 22 -5.3 8 -13.4 53 53 W 18 30 30.1 1019 10 16.0934 N/A
7:58 am 07:58 Clear 23 -5.1 8 -13.2 53 53 N 8 13 30.11 1020 10 16.0934 N/A
8:58 am 08:58 Clear 23 -5 9 -12.6 56 56 WNW 14 22 30.11 1020 10 16.0934 N/A
9:58 am 09:58 Clear 24 -4.7 10 -12.5 55 55 WNW 15 24 30.09 1019 10 16.0934 N/A
10:58 am 10:58 Clear 23 -4.9 10 -12 58 58 WNW 9 15 30.08 1019 10 16.0934 N/A
11:58 am 11:58 Mostly Clear 23 -4.9 12 -11.1 62 62 W 16 26 30.1 1019 10 16.0934 N/A
12:58 pm 12:58 Clear 27 -2.9 14 -10.1 58 58 WNW 20 31 30.1 1019 10 16.0934 N/A
1:58 pm 13:58 Clear 28 -2.5 15 -9.4 59 59 W 17 28 30.1 1019 10 16.0934 N/A
2:58 pm 14:58 Sunny 26 -3.3 15 -9.2 64 64 W 16 26 30.12 1020 10 16.0934 N/A
3:58 pm 15:58 Sunny 31 -0.4 17 -8.2 56 56 WNW 20 31 30.12 1020 10 16.0934 N/A
4:58 pm 16:58 Sunny 35 1.7 20 -6.6 54 54 WNW 17 28 30.12 1020 10 16.0934 N/A
5:58 pm 17:58 Sunny 39 3.7 22 -5.7 51 51 WNW 21 33 30.07 1018 10 16.0934 N/A
6:58 pm 18:58 Sunny 42 5.3 24 -4.4 50 50 W 14 22 30.04 1017 10 16.0934 N/A
7:58 pm 19:58 Sunny 43 5.9 25 -3.7 51 51 WNW 18 30 30.03 1017 10 16.0934 N/A
8:58 pm 20:58 Sunny 44 6.5 24 -4.2 47 47 WNW 24 39 29.99 1016 10 16.0934 N/A
9:58 pm 21:58 Sunny 43 6.2 23 -5 45 45 WNW 24 39 30 1016 10 16.0934 N/A
10:58 pm 22:58 Sunny 41 5.1 24 -4.2 51 51 WNW 20 31 30.01 1016 10 16.0934 N/A
11:58 pm 23:58 Clear 38 3.1 23 -5.1 55 55 WNW 21 33 30.04 1017 10 16.0934 N/A

Powered by AerisWeather